METAR Data
IDs: Format: Raw Decoded Include TAF

Data at: 2041 UTC 18 Apr 2021

EKSP 182020Z 05004KT 020V080 CAVOK 08/02 Q1023